createdAt,value
2023-05-03T00:00:21.168Z,-24078.22
2023-05-03T00:02:48.215Z,-24078.01
2023-05-03T00:08:13.360Z,-24078.10
2023-05-03T00:10:40.444Z,-24077.39
2023-05-03T00:13:07.943Z,-24077.61
2023-05-03T00:15:34.904Z,-24078.29
2023-05-03T00:18:02.023Z,-24078.70
2023-05-03T00:20:29.109Z,-24078.82
2023-05-03T00:22:56.086Z,-24079.01
2023-05-03T00:25:23.066Z,-24079.47
2023-05-03T00:27:50.040Z,-24079.72
2023-05-03T00:30:19.063Z,-24080.22
2023-05-03T00:32:46.243Z,-24080.60
2023-05-03T00:35:13.587Z,-24080.81
2023-05-03T00:37:40.722Z,-24081.13
2023-05-03T00:40:08.917Z,-24081.43
2023-05-03T00:42:37.065Z,-24081.59
2023-05-03T00:45:06.321Z,-24081.43
2023-05-03T00:47:33.374Z,-24081.46
2023-05-03T00:50:01.312Z,-24081.56
2023-05-03T00:52:29.325Z,-24081.53
2023-05-03T00:54:57.525Z,-24081.16
2023-05-03T00:57:25.832Z,-24080.97
2023-05-03T00:59:57.222Z,-24081.25
2023-05-03T01:02:24.998Z,-24081.03
2023-05-03T01:04:52.964Z,-24080.84
2023-05-03T01:07:44.323Z,-24081.00
2023-05-03T01:10:32.215Z,-24081.25
2023-05-03T01:13:14.855Z,-24081.75
2023-05-03T01:15:44.987Z,-24081.69
2023-05-03T01:18:15.723Z,-24081.13
2023-05-03T01:20:44.493Z,-24080.88
2023-05-03T01:23:15.510Z,-24081.25
2023-05-03T01:25:42.683Z,-24081.66
2023-05-03T01:28:09.713Z,-24081.38
2023-05-03T01:30:37.063Z,-24081.28
2023-05-03T01:33:13.187Z,-24081.16
2023-05-03T01:35:47.861Z,-24081.03
2023-05-03T01:38:14.991Z,-24080.57
2023-05-03T01:40:51.468Z,-24080.16
2023-05-03T01:43:20.359Z,-24079.75
2023-05-03T01:45:47.367Z,-24079.50
2023-05-03T01:48:18.462Z,-24078.94
2023-05-03T01:50:46.056Z,-24078.19
2023-05-03T01:53:13.054Z,-24077.26
2023-05-03T01:55:40.201Z,-24076.48
2023-05-03T01:58:07.230Z,-24075.73
2023-05-03T02:00:34.269Z,-24074.98
2023-05-03T02:03:01.284Z,-24074.52
2023-05-03T02:05:28.314Z,-24073.89
2023-05-03T02:07:55.271Z,-24073.39
2023-05-03T02:10:22.278Z,-24072.83
2023-05-03T02:12:49.246Z,-24072.25
2023-05-03T02:15:16.985Z,-24071.84
2023-05-03T02:17:44.206Z,-24071.40
2023-05-03T02:20:12.773Z,-24071.06
2023-05-03T02:22:39.912Z,-24070.43
2023-05-03T02:25:07.722Z,-24070.00
2023-05-03T02:27:34.667Z,-24069.47
2023-05-03T02:30:02.115Z,-24068.72
2023-05-03T02:32:31.598Z,-24068.13
2023-05-03T02:34:59.407Z,-24067.69
2023-05-03T02:37:26.453Z,-24067.13
2023-05-03T02:39:53.783Z,-24066.69
2023-05-03T02:42:21.078Z,-24066.38
2023-05-03T02:44:49.084Z,-24065.73
2023-05-03T02:47:16.403Z,-24065.35
2023-05-03T02:49:43.755Z,-24064.72
2023-05-03T02:52:11.017Z,-24064.42
2023-05-03T02:54:38.104Z,-24064.07
2023-05-03T02:57:07.644Z,-24063.92
2023-05-03T02:59:34.688Z,-24063.82
2023-05-03T03:02:01.991Z,-24063.42
2023-05-03T03:04:29.889Z,-24063.32
2023-05-03T03:06:57.293Z,-24063.01
2023-05-03T03:09:24.697Z,-24062.92
2023-05-03T03:11:52.441Z,-24063.14
2023-05-03T03:14:19.995Z,-24063.32
2023-05-03T03:16:47.185Z,-24063.79
2023-05-03T03:19:14.165Z,-24063.95
2023-05-03T03:21:41.836Z,-24063.98
2023-05-03T03:24:09.163Z,-24063.82
2023-05-03T03:26:36.322Z,-24063.89
2023-05-03T03:29:03.298Z,-24064.01
2023-05-03T03:31:31.326Z,-24064.39
2023-05-03T03:33:58.558Z,-24064.70
2023-05-03T03:36:28.078Z,-24065.29
2023-05-03T03:38:55.405Z,-24065.95
2023-05-03T03:41:23.170Z,-24066.32
2023-05-03T03:43:50.604Z,-24066.57
2023-05-03T03:46:18.137Z,-24067.16
2023-05-03T03:48:45.591Z,-24068.03
2023-05-03T03:51:12.740Z,-24068.88
2023-05-03T03:53:43.221Z,-24069.75
2023-05-03T03:56:10.213Z,-24070.53
2023-05-03T03:58:37.312Z,-24071.18
2023-05-03T04:01:04.905Z,-24071.71
2023-05-03T04:03:32.037Z,-24072.49
2023-05-03T04:05:59.151Z,-24074.02
2023-05-03T04:08:26.414Z,-24075.83
2023-05-03T04:10:53.502Z,-24078.29
2023-05-03T04:13:21.005Z,-24080.56
2023-05-03T04:15:50.057Z,-24082.53
2023-05-03T04:18:17.100Z,-24083.31
2023-05-03T04:20:44.686Z,-24083.12
2023-05-03T04:23:11.888Z,-24083.28
2023-05-03T04:25:39.050Z,-24083.53
2023-05-03T04:28:11.072Z,-24083.59
2023-05-03T04:30:47.085Z,-24083.71
2023-05-03T04:33:15.651Z,-24083.65
2023-05-03T04:35:42.761Z,-24084.09
2023-05-03T04:38:12.716Z,-24084.71
2023-05-03T04:40:41.301Z,-24085.58
2023-05-03T04:43:09.791Z,-24086.30
2023-05-03T04:45:39.752Z,-24087.11
2023-05-03T04:48:08.225Z,-24087.85
2023-05-03T04:50:36.136Z,-24088.42
2023-05-03T04:53:04.226Z,-24089.22
2023-05-03T04:55:32.211Z,-24090.78
2023-05-03T04:57:59.356Z,-24092.37
2023-05-03T05:00:26.426Z,-24094.12
2023-05-03T05:02:59.067Z,-24096.48
2023-05-03T05:05:27.338Z,-24099.32
2023-05-03T05:07:54.561Z,-24101.94
2023-05-03T05:10:21.602Z,-24104.52
2023-05-03T05:12:48.639Z,-24107.11
2023-05-03T05:15:15.776Z,-24109.47
2023-05-03T05:17:44.172Z,-24111.93
2023-05-03T05:20:13.453Z,-24114.33
2023-05-03T05:22:42.974Z,-24116.63
2023-05-03T05:25:10.196Z,-24118.69
2023-05-03T05:27:37.367Z,-24120.71
2023-05-03T05:30:05.468Z,-24122.98
2023-05-03T05:32:33.679Z,-24125.38
2023-05-03T05:35:01.343Z,-24128.11
2023-05-03T05:37:28.741Z,-24131.07
2023-05-03T05:39:57.914Z,-24133.71
2023-05-03T05:42:27.064Z,-24136.82
2023-05-03T05:44:54.017Z,-24140.68
2023-05-03T05:47:21.928Z,-24144.47
2023-05-03T05:49:49.899Z,-24148.73
2023-05-03T05:52:16.930Z,-24152.83
2023-05-03T05:54:44.044Z,-24156.90
2023-05-03T05:57:11.143Z,-24159.86
2023-05-03T05:59:38.698Z,-24162.74
2023-05-03T06:02:05.909Z,-24165.69
2023-05-03T06:04:32.987Z,-24168.24
2023-05-03T06:07:00.040Z,-24171.53
2023-05-03T06:09:27.070Z,-24175.23
2023-05-03T06:11:57.660Z,-24178.49
2023-05-03T06:14:25.901Z,-24181.84
2023-05-03T06:16:54.017Z,-24184.67
2023-05-03T06:19:21.228Z,-24187.62
2023-05-03T06:21:48.164Z,-24190.50
2023-05-03T06:24:21.273Z,-24193.82
2023-05-03T06:26:50.855Z,-24196.93
2023-05-03T06:29:18.427Z,-24199.78
2023-05-03T06:31:46.047Z,-24202.51
2023-05-03T06:34:13.494Z,-24205.24
2023-05-03T06:36:41.878Z,-24208.12
2023-05-03T06:39:09.659Z,-24210.85
2023-05-03T06:41:36.895Z,-24213.45
2023-05-03T06:44:07.505Z,-24215.68
2023-05-03T06:46:34.524Z,-24217.83
2023-05-03T06:49:01.611Z,-24220.34
2023-05-03T06:51:30.120Z,-24223.75
2023-05-03T06:53:57.837Z,-24226.35
2023-05-03T06:56:24.941Z,-24229.23
2023-05-03T06:58:51.890Z,-24232.02
2023-05-03T07:01:20.785Z,-24234.81
2023-05-03T07:03:48.033Z,-24238.06
2023-05-03T07:06:15.803Z,-24241.71
2023-05-03T07:08:42.890Z,-24245.24
2023-05-03T07:11:10.334Z,-24247.44
2023-05-03T07:13:37.246Z,-24248.99
2023-05-03T07:16:04.430Z,-24250.60
2023-05-03T07:18:31.469Z,-24252.80
2023-05-03T07:20:58.613Z,-24255.31
2023-05-03T07:23:25.639Z,-24258.61
2023-05-03T07:25:54.174Z,-24262.29
2023-05-03T07:28:22.296Z,-24265.20
2023-05-03T07:30:49.362Z,-24267.99
2023-05-03T07:33:16.616Z,-24270.53
2023-05-03T07:35:46.627Z,-24273.06
2023-05-03T07:38:13.706Z,-24275.41
2023-05-03T07:40:41.832Z,-24277.94
2023-05-03T07:43:10.436Z,-24280.70
2023-05-03T07:45:37.755Z,-24282.83
2023-05-03T07:48:05.516Z,-24284.04
2023-05-03T07:50:32.785Z,-24285.05
2023-05-03T07:53:00.074Z,-24286.97
2023-05-03T07:55:27.328Z,-24289.51
2023-05-03T07:57:59.082Z,-24291.54
2023-05-03T08:00:27.416Z,-24293.00
2023-05-03T08:02:54.710Z,-24293.77
2023-05-03T08:05:22.009Z,-24293.65
2023-05-03T08:07:49.835Z,-24293.00
2023-05-03T08:10:16.972Z,-24292.22
2023-05-03T08:12:44.106Z,-24292.41
2023-05-03T08:15:11.600Z,-24293.30
2023-05-03T08:17:42.897Z,-24294.11
2023-05-03T08:20:10.832Z,-24294.73
2023-05-03T08:22:41.516Z,-24295.04
2023-05-03T08:25:09.054Z,-24295.04
2023-05-03T08:27:36.927Z,-24295.53
2023-05-03T08:30:05.242Z,-24296.64
2023-05-03T08:32:32.808Z,-24297.72
2023-05-03T08:35:00.119Z,-24298.50
2023-05-03T08:37:28.525Z,-24299.64
2023-05-03T08:39:56.574Z,-24300.96
2023-05-03T08:42:25.760Z,-24302.88
2023-05-03T08:44:53.405Z,-24305.17
2023-05-03T08:47:22.136Z,-24308.41
2023-05-03T08:49:49.218Z,-24311.32
2023-05-03T08:52:18.614Z,-24312.12
2023-05-03T08:54:47.183Z,-24311.38
2023-05-03T08:57:14.818Z,-24310.76
2023-05-03T08:59:53.837Z,-24310.14
2023-05-03T09:02:21.487Z,-24310.51
2023-05-03T09:04:48.509Z,-24310.20
2023-05-03T09:07:16.961Z,-24310.79
2023-05-03T09:09:46.326Z,-24312.52
2023-05-03T09:12:33.105Z,-24314.12
2023-05-03T09:15:01.155Z,-24316.50
2023-05-03T09:17:28.368Z,-24318.04
2023-05-03T09:19:57.649Z,-24319.68
2023-05-03T09:22:30.880Z,-24319.68
2023-05-03T09:25:01.500Z,-24320.08
2023-05-03T09:27:28.581Z,-24320.70
2023-05-03T09:29:55.632Z,-24320.39
2023-05-03T09:32:23.255Z,-24320.45
2023-05-03T09:34:50.281Z,-24321.56
2023-05-03T09:37:17.802Z,-24324.09
2023-05-03T09:39:48.244Z,-24327.08
2023-05-03T09:42:16.489Z,-24328.84
2023-05-03T09:44:54.253Z,-24328.84
2023-05-03T09:47:25.872Z,-24328.35
2023-05-03T09:49:53.171Z,-24327.73
2023-05-03T09:52:20.110Z,-24326.74
2023-05-03T09:54:47.462Z,-24326.37
2023-05-03T09:57:15.217Z,-24326.71
2023-05-03T09:59:42.446Z,-24327.51
2023-05-03T10:02:09.463Z,-24328.59
2023-05-03T10:04:43.858Z,-24329.98
2023-05-03T10:07:15.225Z,-24330.91
2023-05-03T10:09:48.373Z,-24330.54
2023-05-03T10:12:17.736Z,-24329.05
2023-05-03T10:14:46.371Z,-24329.18
2023-05-03T10:17:35.755Z,-24330.94
2023-05-03T10:20:27.934Z,-24334.11
2023-05-03T10:23:14.189Z,-24336.09
2023-05-03T10:26:09.882Z,-24336.92
2023-05-03T10:28:40.249Z,-24338.19
2023-05-03T10:31:09.486Z,-24340.04
2023-05-03T10:33:37.075Z,-24342.01
2023-05-03T10:36:10.867Z,-24343.83
2023-05-03T10:38:38.266Z,-24346.32
2023-05-03T10:41:07.377Z,-24349.56
2023-05-03T10:43:34.559Z,-24353.23
2023-05-03T10:46:05.959Z,-24356.21
2023-05-03T10:48:34.064Z,-24357.39
2023-05-03T10:51:28.853Z,-24357.20
2023-05-03T10:53:56.081Z,-24356.65
2023-05-03T10:56:24.220Z,-24355.63
2023-05-03T10:58:55.814Z,-24355.72
2023-05-03T11:01:22.756Z,-24357.08
2023-05-03T11:03:52.155Z,-24358.65
2023-05-03T11:06:30.126Z,-24360.53
2023-05-03T11:08:57.356Z,-24362.84
2023-05-03T11:11:24.341Z,-24364.54
2023-05-03T11:13:52.126Z,-24366.20
2023-05-03T11:16:19.226Z,-24367.80
2023-05-03T11:18:46.517Z,-24369.50
2023-05-03T11:21:13.888Z,-24370.72
2023-05-03T11:23:41.767Z,-24371.99
2023-05-03T11:26:09.977Z,-24373.43
2023-05-03T11:28:40.536Z,-24374.39
2023-05-03T11:31:08.401Z,-24375.28
2023-05-03T11:33:37.393Z,-24375.86
2023-05-03T11:36:05.164Z,-24375.89
2023-05-03T11:38:35.987Z,-24376.02
2023-05-03T11:41:18.951Z,-24375.68
2023-05-03T11:43:50.912Z,-24375.56
2023-05-03T11:46:22.866Z,-24376.57
2023-05-03T11:48:49.934Z,-24378.70
2023-05-03T11:51:21.835Z,-24380.36
2023-05-03T11:53:49.334Z,-24381.04
2023-05-03T11:56:20.657Z,-24382.08
2023-05-03T11:58:52.059Z,-24382.36
2023-05-03T12:01:21.971Z,-24382.70
2023-05-03T12:03:53.404Z,-24383.41
2023-05-03T12:06:21.033Z,-24384.42
2023-05-03T12:08:50.156Z,-24385.34
2023-05-03T12:11:18.219Z,-24386.24
2023-05-03T12:13:47.711Z,-24387.38
2023-05-03T12:16:19.331Z,-24388.70
2023-05-03T12:18:47.355Z,-24390.86
2023-05-03T12:23:46.061Z,-24393.75
2023-05-03T12:26:14.566Z,-24394.85
2023-05-03T12:28:41.938Z,-24395.74
2023-05-03T12:31:09.402Z,-24395.31
2023-05-03T12:33:38.642Z,-24394.88
2023-05-03T12:36:09.408Z,-24394.58
2023-05-03T12:38:37.872Z,-24394.03
2023-05-03T12:41:08.766Z,-24394.11
2023-05-03T12:43:36.701Z,-24394.55
2023-05-03T12:48:34.027Z,-24398.33
2023-05-03T12:51:18.622Z,-24399.96
2023-05-03T12:53:47.759Z,-24401.46
2023-05-03T12:56:15.304Z,-24403.06
2023-05-03T13:03:44.459Z,-24407.24
2023-05-03T13:06:19.405Z,-24407.73
2023-05-03T13:08:49.882Z,-24407.82
2023-05-03T13:11:19.597Z,-24407.34
2023-05-03T13:13:47.248Z,-24407.24
2023-05-03T13:16:14.638Z,-24407.52
2023-05-03T13:18:43.111Z,-24408.26
2023-05-03T13:21:11.275Z,-24409.24
2023-05-03T13:23:38.428Z,-24410.07
2023-05-03T13:26:07.263Z,-24411.48
2023-05-03T13:28:34.333Z,-24413.05
2023-05-03T13:31:01.691Z,-24413.79
2023-05-03T13:33:29.495Z,-24414.13
2023-05-03T13:35:56.870Z,-24414.04
2023-05-03T13:38:23.893Z,-24413.61
2023-05-03T13:40:50.924Z,-24413.30
2023-05-03T13:43:17.904Z,-24413.02
2023-05-03T13:45:45.019Z,-24412.74
2023-05-03T13:48:18.598Z,-24412.68
2023-05-03T13:50:46.306Z,-24412.86
2023-05-03T13:53:13.404Z,-24413.27
2023-05-03T13:55:40.301Z,-24414.10
2023-05-03T13:58:07.586Z,-24414.28
2023-05-03T14:00:34.541Z,-24414.44
2023-05-03T14:03:01.924Z,-24414.78
2023-05-03T14:05:29.597Z,-24414.93
2023-05-03T14:07:57.415Z,-24414.78
2023-05-03T14:10:24.893Z,-24414.56
2023-05-03T14:12:53.392Z,-24414.59
2023-05-03T14:15:20.588Z,-24413.67
2023-05-03T14:17:48.080Z,-24412.65
2023-05-03T14:20:17.650Z,-24411.14
2023-05-03T14:22:45.582Z,-24409.61
2023-05-03T14:25:13.002Z,-24409.12
2023-05-03T14:27:40.446Z,-24408.87
2023-05-03T14:30:10.052Z,-24408.16
2023-05-03T14:32:37.152Z,-24408.26
2023-05-03T14:35:04.325Z,-24409.08
2023-05-03T14:37:31.421Z,-24409.70
2023-05-03T14:39:58.815Z,-24410.25
2023-05-03T14:42:29.764Z,-24410.07
2023-05-03T14:44:56.932Z,-24409.70
2023-05-03T14:47:24.024Z,-24408.41
2023-05-03T14:49:51.895Z,-24407.37
2023-05-03T14:52:19.368Z,-24406.84
2023-05-03T14:54:46.433Z,-24405.61
2023-05-03T14:57:13.428Z,-24403.86
2023-05-03T14:59:40.583Z,-24402.02
2023-05-03T15:02:07.678Z,-24400.70
2023-05-03T15:04:37.039Z,-24400.48
2023-05-03T15:07:05.345Z,-24400.36
2023-05-03T15:09:33.761Z,-24399.59
2023-05-03T15:12:02.129Z,-24399.07
2023-05-03T15:14:29.303Z,-24398.94
2023-05-03T15:16:56.486Z,-24398.63
2023-05-03T15:19:23.815Z,-24398.82
2023-05-03T15:21:51.639Z,-24397.65
2023-05-03T15:24:18.779Z,-24396.45
2023-05-03T15:26:47.003Z,-24395.81
2023-05-03T15:29:15.099Z,-24395.56
2023-05-03T15:31:42.995Z,-24394.79
2023-05-03T15:34:12.651Z,-24393.99
2023-05-03T15:36:40.839Z,-24393.04
2023-05-03T15:39:08.057Z,-24391.71
2023-05-03T15:41:35.071Z,-24390.76
2023-05-03T15:44:05.572Z,-24390.39
2023-05-03T15:46:34.514Z,-24390.12
2023-05-03T15:49:01.971Z,-24389.87
2023-05-03T15:51:29.433Z,-24389.01
2023-05-03T15:53:56.415Z,-24387.81
2023-05-03T15:56:23.343Z,-24386.42
2023-05-03T15:58:50.443Z,-24385.53
2023-05-03T16:01:18.839Z,-24384.57
2023-05-03T16:03:46.377Z,-24384.02
2023-05-03T16:06:16.889Z,-24383.71
2023-05-03T16:08:44.155Z,-24383.07
2023-05-03T16:11:11.346Z,-24381.71
2023-05-03T16:13:38.649Z,-24380.42
2023-05-03T16:16:05.918Z,-24379.93
2023-05-03T16:18:32.966Z,-24379.59
2023-05-03T16:21:01.492Z,-24379.04
2023-05-03T16:23:28.707Z,-24378.42
2023-05-03T16:25:56.790Z,-24377.99
2023-05-03T16:28:23.792Z,-24377.34
2023-05-03T16:30:50.847Z,-24376.92
2023-05-03T16:33:18.379Z,-24376.02
2023-05-03T16:35:45.340Z,-24374.97
2023-05-03T16:38:12.528Z,-24373.93
2023-05-03T16:40:40.700Z,-24372.76
2023-05-03T16:43:07.833Z,-24371.74
2023-05-03T16:45:34.864Z,-24370.82
2023-05-03T16:48:04.504Z,-24369.90
2023-05-03T16:50:32.728Z,-24368.97
2023-05-03T16:52:59.795Z,-24367.74
2023-05-03T16:55:26.715Z,-24366.72
2023-05-03T16:57:53.695Z,-24365.46
2023-05-03T17:00:22.039Z,-24363.92
2023-05-03T17:02:49.223Z,-24362.13
2023-05-03T17:05:16.306Z,-24360.22
2023-05-03T17:07:43.333Z,-24358.37
2023-05-03T17:10:10.733Z,-24357.08
2023-05-03T17:12:37.985Z,-24355.76
2023-05-03T17:15:05.438Z,-24354.18
2023-05-03T17:17:35.244Z,-24352.73
2023-05-03T17:20:02.658Z,-24351.01
2023-05-03T17:22:29.925Z,-24349.28
2023-05-03T17:24:58.129Z,-24347.62
2023-05-03T17:27:25.446Z,-24346.11
2023-05-03T17:29:52.655Z,-24344.48
2023-05-03T17:32:19.676Z,-24343.30
2023-05-03T17:34:46.645Z,-24341.86
2023-05-03T17:37:14.087Z,-24340.47
2023-05-03T17:39:41.632Z,-24338.74
2023-05-03T17:42:09.139Z,-24337.57
2023-05-03T17:44:36.190Z,-24336.49
2023-05-03T17:47:03.775Z,-24335.53
2023-05-03T17:49:33.146Z,-24334.58
2023-05-03T17:52:00.368Z,-24333.68
2023-05-03T17:54:30.479Z,-24332.82
2023-05-03T17:56:57.490Z,-24331.65
2023-05-03T17:59:24.551Z,-24330.54
2023-05-03T18:01:51.570Z,-24328.32
2023-05-03T18:04:18.579Z,-24325.02
2023-05-03T18:06:45.816Z,-24321.56
2023-05-03T18:09:13.376Z,-24318.51
2023-05-03T18:11:41.450Z,-24315.57
2023-05-03T18:14:08.568Z,-24309.43
2023-05-03T18:16:36.416Z,-24300.65
2023-05-03T18:19:04.269Z,-24290.68
2023-05-03T18:21:31.298Z,-24280.72
2023-05-03T18:23:58.564Z,-24272.96
2023-05-03T18:26:25.673Z,-24266.90
2023-05-03T18:28:53.739Z,-24261.03
2023-05-03T18:31:25.397Z,-24255.21
2023-05-03T18:33:53.186Z,-24249.42
2023-05-03T18:36:21.910Z,-24244.77
2023-05-03T18:38:53.295Z,-24242.24
2023-05-03T18:41:20.281Z,-24240.88
2023-05-03T18:43:47.320Z,-24239.85
2023-05-03T18:46:20.783Z,-24239.39
2023-05-03T18:48:47.887Z,-24239.05
2023-05-03T18:51:15.117Z,-24238.49
2023-05-03T18:53:43.639Z,-24237.68
2023-05-03T18:56:10.770Z,-24236.72
2023-05-03T18:58:37.735Z,-24235.09
2023-05-03T19:01:06.074Z,-24233.63
2023-05-03T19:03:33.388Z,-24232.30
2023-05-03T19:06:04.261Z,-24230.31
2023-05-03T19:08:31.806Z,-24227.62
2023-05-03T19:11:07.157Z,-24225.39
2023-05-03T19:13:34.250Z,-24223.81
2023-05-03T19:16:01.160Z,-24222.26
2023-05-03T19:18:28.196Z,-24220.59
2023-05-03T19:20:56.696Z,-24218.17
2023-05-03T19:23:23.901Z,-24215.65
2023-05-03T19:25:50.828Z,-24212.86
2023-05-03T19:28:17.789Z,-24210.01
2023-05-03T19:30:46.137Z,-24207.41
2023-05-03T19:33:13.215Z,-24205.18
2023-05-03T19:35:40.753Z,-24202.88
2023-05-03T19:38:07.734Z,-24201.11
2023-05-03T19:40:34.880Z,-24199.25
2023-05-03T19:43:02.444Z,-24197.24
2023-05-03T19:45:29.585Z,-24195.13
2023-05-03T19:47:56.629Z,-24192.64
2023-05-03T19:50:23.738Z,-24190.41
2023-05-03T19:52:53.937Z,-24188.33
2023-05-03T19:55:21.001Z,-24186.50
2023-05-03T19:57:48.131Z,-24184.70
2023-05-03T20:00:17.576Z,-24183.18
2023-05-03T20:02:44.741Z,-24181.93
2023-05-03T20:05:11.858Z,-24180.50
2023-05-03T20:07:38.992Z,-24179.29
2023-05-03T20:10:06.832Z,-24177.93
2023-05-03T20:12:34.167Z,-24176.84
2023-05-03T20:15:01.371Z,-24175.20
2023-05-03T20:17:28.437Z,-24173.92
2023-05-03T20:19:55.663Z,-24172.53
2023-05-03T20:22:22.793Z,-24171.22
2023-05-03T20:24:51.148Z,-24169.98
2023-05-03T20:27:19.508Z,-24168.64
2023-05-03T20:29:46.532Z,-24167.31
2023-05-03T20:32:13.678Z,-24165.70
2023-05-03T20:34:40.824Z,-24164.73
2023-05-03T20:37:08.481Z,-24163.34
2023-05-03T20:39:35.670Z,-24161.81
2023-05-03T20:42:02.769Z,-24160.14
2023-05-03T20:44:29.838Z,-24159.23
2023-05-03T20:46:57.057Z,-24157.93
2023-05-03T20:49:24.151Z,-24156.19
2023-05-03T20:51:51.067Z,-24154.82
2023-05-03T20:54:18.312Z,-24153.86
2023-05-03T20:56:45.540Z,-24152.62
2023-05-03T20:59:12.497Z,-24150.88
2023-05-03T21:01:40.983Z,-24149.48
2023-05-03T21:04:08.140Z,-24148.17
2023-05-03T21:06:38.300Z,-24147.27
2023-05-03T21:09:06.078Z,-24146.68
2023-05-03T21:11:33.109Z,-24145.78
2023-05-03T21:14:01.690Z,-24144.91
2023-05-03T21:16:29.249Z,-24143.92
2023-05-03T21:18:56.262Z,-24143.29
2023-05-03T21:21:24.347Z,-24142.51
2023-05-03T21:23:51.900Z,-24141.45
2023-05-03T21:26:19.107Z,-24140.33
2023-05-03T21:28:46.404Z,-24139.62
2023-05-03T21:31:13.576Z,-24138.69
2023-05-03T21:33:40.711Z,-24137.69
2023-05-03T21:36:07.762Z,-24136.51
2023-05-03T21:38:34.812Z,-24135.89
2023-05-03T21:41:05.859Z,-24134.95
2023-05-03T21:43:34.099Z,-24133.99
2023-05-03T21:46:02.009Z,-24133.15
2023-05-03T21:48:29.232Z,-24132.40
2023-05-03T21:50:56.169Z,-24131.28
2023-05-03T21:53:23.309Z,-24130.20
2023-05-03T21:55:50.493Z,-24129.67
2023-05-03T21:58:17.719Z,-24128.98
2023-05-03T22:00:44.715Z,-24128.08
2023-05-03T22:03:11.951Z,-24127.21
2023-05-03T22:05:47.890Z,-24126.21
2023-05-03T22:08:18.262Z,-24125.28
2023-05-03T22:10:45.771Z,-24124.22
2023-05-03T22:13:13.289Z,-24123.66
2023-05-03T22:15:40.441Z,-24123.26
2023-05-03T22:18:07.717Z,-24122.61
2023-05-03T22:20:34.884Z,-24122.01
2023-05-03T22:23:02.847Z,-24121.39
2023-05-03T22:25:32.100Z,-24120.71
2023-05-03T22:27:59.641Z,-24119.99
2023-05-03T22:30:26.944Z,-24118.84
2023-05-03T22:32:54.126Z,-24118.06
2023-05-03T22:35:21.355Z,-24117.60
2023-05-03T22:37:48.368Z,-24116.66
2023-05-03T22:40:15.453Z,-24115.23
2023-05-03T22:42:42.508Z,-24114.27
2023-05-03T22:45:10.044Z,-24113.52
2023-05-03T22:47:37.146Z,-24112.62
2023-05-03T22:50:04.784Z,-24111.56
2023-05-03T22:52:32.093Z,-24110.41
2023-05-03T22:55:00.620Z,-24109.16
2023-05-03T22:57:27.559Z,-24108.14
2023-05-03T22:59:54.728Z,-24106.86
2023-05-03T23:02:22.269Z,-24105.58
2023-05-03T23:04:49.313Z,-24104.49
2023-05-03T23:07:16.374Z,-24103.43
2023-05-03T23:09:43.327Z,-24102.22
2023-05-03T23:12:10.350Z,-24100.69
2023-05-03T23:14:39.158Z,-24099.22
2023-05-03T23:17:06.481Z,-24098.45
2023-05-03T23:19:33.935Z,-24097.39
2023-05-03T23:22:00.839Z,-24096.36
2023-05-03T23:24:27.805Z,-24095.70
2023-05-03T23:26:54.728Z,-24094.83
2023-05-03T23:29:22.527Z,-24093.87
2023-05-03T23:31:49.930Z,-24092.96
2023-05-03T23:34:18.708Z,-24092.16
2023-05-03T23:36:45.801Z,-24091.47
2023-05-03T23:39:13.209Z,-24090.75
2023-05-03T23:41:40.434Z,-24089.79
2023-05-03T23:44:08.018Z,-24089.19
2023-05-03T23:46:35.872Z,-24088.48
2023-05-03T23:49:02.903Z,-24087.98
2023-05-03T23:51:30.017Z,-24087.20
2023-05-03T23:53:56.949Z,-24086.89
2023-05-03T23:56:24.121Z,-24086.55
2023-05-03T23:58:51.432Z,-24085.86
